Date,TemperatureHighF,TemperatureAvgF,TemperatureLowF,DewpointHighF,DewpointAvgF,DewpointLowF,HumidityHigh,HumidityAvg,HumidityLow,PressureMaxIn,PressureMinIn,WindSpeedMaxMPH,WindSpeedAvgMPH,GustSpeedMaxMPH,PrecipitationSumIn
2013-1-1,49,44,39,39,31,21,87,61,39,29.74,29.56,5,1,5,0.25
2013-1-2,47,39,34,41,33,28,95,79,53,29.85,29.65,6,1,6,0.16
2013-1-3,42,34,28,30,20,16,87,58,40,29.91,29.83,6,1,6,0.00
2013-1-4,48,36,26,23,18,12,84,50,33,29.91,29.83,9,2,9,0.00
2013-1-5,52,39,29,23,17,12,53,42,29,30.06,29.88,7,1,7,0.00
2013-1-6,55,43,36,34,27,21,78,53,36,29.88,29.71,7,1,7,0.00
2013-1-7,53,40,28,28,22,18,74,50,36,30.09,29.83,12,1,12,0.00
2013-1-8,51,38,27,34,27,19,89,66,42,30.12,30.03,6,0,6,0.00
2013-1-9,71,52,35,48,40,28,85,64,37,30.06,29.94,11,1,11,0.00
2013-1-10,64,49,36,48,34,23,95,59,29,30.21,30.03,10,1,10,0.00
2013-1-11,46,41,33,46,36,23,98,82,59,30.15,29.80,5,0,5,0.13
2013-1-12,58,54,46,55,53,46,98,94,79,29.83,29.77,8,1,8,0.00
2013-1-13,73,61,55,63,56,55,98,85,53,29.80,29.71,6,1,6,0.00
2013-1-14,63,57,43,63,55,43,98,93,83,29.91,29.71,11,2,11,1.28
2013-1-15,43,41,39,43,41,39,98,98,96,29.97,29.77,10,2,10,1.33
2013-1-16,46,41,37,46,41,37,98,98,95,29.80,29.59,8,1,8,0.50
2013-1-17,47,43,33,48,43,34,98,97,89,29.77,29.65,12,2,12,0.99
2013-1-18,61,50,40,48,30,19,98,49,35,30.15,30.03,8,1,8,0.42
2013-1-19,53,42,28,25,22,18,69,45,31,30.09,29.77,8,2,8,0.25
2013-1-20,60,46,36,28,22,18,54,40,26,29.77,29.59,15,2,15,0.04
2013-1-21,57,42,25,32,19,7,81,44,26,29.77,29.47,11,2,11,0.00
2013-1-22,36,28,20,9,-1,-8,33,29,22,29.94,29.59,13,2,13,0.00
2013-1-23,36,26,11,32,4,-8,60,33,24,30.00,29.74,11,1,11,0.00
2013-1-24,32,25,13,32,4,-8,69,42,30,30.18,29.68,16,3,16,0.00
2013-1-25,44,26,11,32,19,-2,76,48,31,30.18,29.74,7,1,7,0.00
2013-1-26,41,28,18,27,15,9,80,61,40,30.09,29.74,4,0,4,0.04
2013-1-27,44,31,20,25,16,12,82,57,33,30.27,30.09,6,1,6,0.00
2013-1-28,57,42,30,41,30,14,93,64,38,30.15,29.80,10,2,10,0.08
2013-1-29,76,59,44,50,42,37,87,57,28,29.83,29.71,8,1,8,0.00
2013-1-30,71,66,59,59,55,48,84,67,54,29.71,29.09,18,4,18,0.00
2013-1-31,52,43,29,34,16,9,50,33,27,29.65,29.12,20,4,20,0.54
2013-2-1,39,31,20,19,5,-4,50,34,24,30.03,29.50,22,3,22,0.00
2013-2-2,41,28,16,12,6,-4,54,38,28,30.06,29.68,11,1,11,0.00
2013-2-3,48,37,28,27,15,9,56,41,29,29.68,29.50,14,2,14,0.00
2013-2-4,32,30,27,10,8,5,42,41,40,29.68,29.65,8,1,8,0.00
2013-2-5,44,42,41,21,21,19,43,42,41,29.62,29.59,4,2,4,0.00
2013-2-7,40,40,39,30,30,30,70,68,66,29.85,29.85,4,1,4,0.04
2013-2-11,60,58,53,55,53,52,98,81,75,29.68,29.53,13,5,13,0.09
2013-2-12,58,53,45,27,24,21,39,32,26,29.71,29.65,8,3,8,0.00
2013-2-24,50,42,34,19,16,14,44,36,29,29.77,29.62,12,2,12,0.45
2013-2-25,47,35,26,19,14,9,60,43,31,29.91,29.77,9,1,9,0.00
2013-2-26,52,40,26,52,34,12,98,81,59,29.88,29.26,22,2,22,0.46
2013-2-27,64,48,37,45,34,23,98,63,28,29.41,29.26,11,2,11,0.00
2013-2-28,55,43,34,34,23,16,79,48,28,29.47,29.35,13,2,13,0.00
2013-3-1,47,39,33,25,21,18,56,47,38,29.59,29.47,6,1,6,0.00
2013-3-2,42,37,34,19,17,14,53,43,37,29.59,29.50,9,1,9,0.00
2013-3-3,50,38,26,18,13,5,51,35,27,29.62,29.50,13,2,13,0.00
2013-3-4,52,43,33,18,11,7,31,27,21,29.74,29.65,15,2,15,0.00
2013-3-5,52,39,28,37,21,3,94,50,28,29.77,29.35,12,2,12,0.45
2013-3-6,38,35,33,36,33,27,98,89,69,29.68,29.18,19,5,19,0.58
2013-3-7,50,40,31,27,21,14,75,48,33,29.85,29.68,17,3,17,0.25
2013-3-8,53,41,29,21,19,14,64,43,29,29.94,29.83,17,3,17,0.00
2013-3-9,65,46,30,27,20,14,64,39,20,30.00,29.91,11,2,11,0.00
2013-3-10,71,49,27,30,20,14,70,36,17,30.00,29.88,10,2,10,0.00
2013-3-11,70,55,40,43,37,21,88,54,34,29.91,29.62,10,2,10,0.00
2013-3-12,73,60,45,61,45,23,98,62,28,29.65,29.44,12,3,12,0.37
2013-3-13,45,41,37,25,23,21,58,50,40,29.65,29.65,2,0,2,0.00
2013-4-29,68,62,54,61,56,52,98,82,63,29.74,29.68,3,0,3,4.93
2013-4-30,70,60,55,55,54,48,96,79,48,29.91,29.74,8,1,8,0.00
2013-5-1,74,61,54,55,46,36,96,63,32,30.03,29.88,10,2,10,0.00
2013-5-2,75,59,49,52,43,36,87,58,32,30.06,29.94,6,1,11,0.00
2013-5-3,76,56,42,52,41,30,93,60,26,29.97,29.91,14,1,14,0.00
2013-5-4,63,52,43,45,40,36,85,65,47,29.94,29.80,9,1,9,0.00
2013-5-5,66,54,41,48,42,34,83,64,43,29.85,29.77,12,2,12,0.00
2013-5-6,71,59,54,61,56,48,98,88,59,29.77,29.59,11,2,11,0.75
2013-5-7,80,64,55,66,55,43,98,75,31,29.62,29.53,8,1,8,0.08
2013-5-8,67,57,50,57,53,48,95,85,55,29.68,29.59,5,0,5,0.09
2013-5-10,86,76,69,55,53,50,60,45,30,29.62,29.59,7,0,7,0.20
2013-5-11,88,72,62,61,58,52,89,63,31,29.62,29.44,11,0,11,0.04
2013-5-12,80,64,48,59,44,27,94,54,22,29.74,29.44,8,1,8,0.04
2013-5-13,73,54,38,37,29,25,74,42,21,29.85,29.74,8,1,8,0.00
2013-5-14,80,59,38,37,32,27,72,39,20,29.91,29.74,8,1,8,0.00
2013-5-15,94,73,53,54,47,34,56,40,25,29.74,29.50,10,1,10,0.00
2013-5-16,88,73,66,57,53,48,67,50,28,29.65,29.53,6,0,6,0.00
2013-5-17,97,76,61,57,52,43,84,48,18,29.80,29.62,8,1,8,0.17
2013-5-18,68,64,59,64,61,55,94,88,81,29.85,29.80,5,0,6,0.21
2013-5-19,80,68,64,66,63,57,97,85,53,29.85,29.77,8,0,8,0.49
2013-5-20,90,72,64,72,65,57,98,81,40,29.80,29.71,8,0,8,0.17
2013-5-21,87,73,66,70,66,61,97,81,45,29.71,29.59,6,0,6,0.04
2013-5-22,92,77,68,68,65,61,95,69,38,29.68,29.56,9,1,9,0.08
2013-5-23,92,74,64,68,64,57,96,73,36,29.65,29.47,8,0,8,0.05
2013-5-24,74,62,49,63,48,30,96,64,31,29.83,29.47,13,1,13,0.04
2013-5-25,73,55,39,37,33,28,78,46,26,29.91,29.80,8,1,8,0.00
2013-5-26,86,63,43,43,37,32,76,43,19,29.94,29.83,9,1,9,0.00
2013-5-27,87,65,47,54,47,39,84,55,23,29.94,29.83,8,0,8,0.00
2013-5-28,93,73,56,61,56,50,83,57,31,29.88,29.77,9,1,9,0.00
2013-5-29,99,78,65,63,58,54,81,53,26,29.85,29.80,8,1,8,0.00
2013-5-30,99,78,64,64,59,55,86,55,27,29.91,29.83,8,1,8,0.00
2013-5-31,100,78,64,68,59,52,90,55,26,29.88,29.77,8,0,8,0.00
2013-6-1,101,80,66,70,59,54,90,53,25,29.80,29.68,8,1,8,0.00
2013-6-2,95,78,69,64,60,55,77,55,30,29.68,29.59,10,1,10,0.21
2013-6-3,90,76,69,72,66,59,96,72,43,29.65,29.50,6,0,6,0.62
2013-6-4,90,71,58,63,50,39,91,53,19,29.80,29.65,8,1,8,0.00
2013-6-5,94,72,55,61,51,46,88,51,22,29.85,29.74,7,0,7,0.00
2013-6-6,79,69,60,70,57,45,96,67,46,29.77,29.53,12,1,12,0.04
2013-6-7,73,69,67,73,69,66,98,97,94,29.53,29.26,8,1,8,1.95
2013-6-8,90,72,66,75,63,54,98,76,33,29.77,29.47,4,0,6,0.79
2013-6-9,97,77,62,68,63,59,94,67,32,29.85,29.74,6,0,6,0.00
2013-6-10,87,74,69,73,68,64,95,82,50,29.77,29.53,10,1,10,0.16
2013-6-11,92,77,69,72,62,55,96,66,31,29.59,29.53,7,1,7,0.00
2013-6-12,102,81,66,70,63,57,84,59,26,29.62,29.53,6,0,6,0.00
2013-6-13,99,84,67,70,67,59,95,61,29,29.53,29.26,10,1,10,0.21
2013-6-14,87,74,62,64,51,45,93,46,29,29.68,29.38,9,1,9,0.00
2013-6-15,95,74,58,61,53,48,86,52,24,29.80,29.68,6,0,6,0.00
2013-6-16,97,78,65,64,60,55,81,57,28,29.74,29.65,7,1,7,0.00
2013-6-17,91,75,68,72,66,61,94,76,41,29.71,29.59,6,0,6,0.08
2013-6-18,81,71,65,73,68,63,96,89,66,29.65,29.47,7,0,7,0.54
2013-6-19,80,70,63,68,61,55,98,76,48,29.83,29.56,6,0,6,0.00
2013-6-20,91,73,62,66,55,43,95,58,28,29.94,29.83,7,0,7,0.00
2013-6-21,95,73,54,61,52,43,84,52,19,29.97,29.88,8,1,8,0.00
2013-6-22,95,73,63,64,61,59,89,71,36,29.94,29.88,5,0,5,0.00
2013-6-25,103,86,75,70,64,61,80,50,28,29.74,29.65,4,0,4,0.33
2013-6-26,103,81,68,72,67,59,95,68,28,29.68,29.53,6,1,7,0.46
2013-6-27,92,76,67,75,67,61,97,77,40,29.59,29.38,9,1,9,0.00
2013-6-28,101,81,70,73,66,59,94,65,30,29.41,29.26,11,1,11,0.00
2013-6-29,100,82,68,72,64,55,93,61,26,29.35,29.26,8,1,8,0.00
2013-6-30,73,71,70,70,69,68,97,92,87,29.56,29.53,6,0,6,1.04
2013-7-1,87,73,70,77,71,64,98,91,52,29.68,29.53,6,0,6,0.87
2013-7-2,76,72,72,73,71,70,96,95,91,29.80,29.68,5,1,5,0.00
2013-7-3,93,80,72,77,71,66,94,75,46,29.94,29.88,7,0,7,0.50
2013-7-4,99,81,72,77,67,59,97,68,31,29.97,29.85,9,1,9,0.00
2013-7-5,100,81,70,73,67,61,94,66,31,29.97,29.85,7,1,7,0.00
2013-7-6,99,82,72,77,67,57,94,66,29,29.91,29.80,6,0,6,0.00
2013-7-7,98,81,71,72,67,63,90,65,35,29.85,29.74,7,1,7,0.00
2013-7-8,95,78,71,73,68,59,95,72,37,29.83,29.77,5,0,5,0.08
2013-7-9,92,79,72,73,70,66,93,74,46,29.83,29.74,7,0,7,0.00
2013-7-10,99,82,72,73,69,64,91,67,36,29.77,29.62,7,1,7,0.00
2013-7-11,86,77,70,75,71,68,96,81,55,29.65,29.59,4,0,4,1.66
2013-7-12,76,70,67,70,67,64,98,89,72,29.74,29.56,6,0,6,0.79
2013-7-13,84,74,68,73,69,64,97,82,58,29.91,29.74,7,0,7,0.12
2013-7-14,102,81,68,79,68,57,97,70,27,30.00,29.91,5,0,5,0.00
2013-7-15,103,82,70,73,67,59,94,65,29,30.00,29.91,5,0,5,0.00
2013-7-16,107,85,71,75,68,61,89,62,25,29.94,29.85,4,0,4,0.00
2013-7-17,106,84,72,75,69,61,93,64,26,29.91,29.80,4,0,4,0.00
2013-7-18,109,86,72,77,68,59,93,62,24,29.83,29.74,3,0,3,0.00
2013-7-19,102,86,74,77,70,64,93,65,35,29.77,29.62,7,1,7,0.00
2013-7-20,100,87,75,72,68,66,74,55,37,29.65,29.56,6,1,6,0.00
2013-7-21,100,80,70,73,69,61,97,74,35,29.65,29.56,6,0,6,1.96
2013-7-22,96,79,70,77,70,64,98,77,39,29.65,29.50,5,0,5,0.00
2013-7-23,100,81,72,73,67,59,94,67,30,29.53,29.38,6,0,6,0.00
2013-7-24,100,80,70,70,65,59,88,63,30,29.59,29.41,7,0,7,0.00
2013-7-25,90,74,65,61,56,50,82,57,30,29.74,29.56,8,0,8,0.00
2013-7-26,95,73,59,61,57,52,87,63,27,29.80,29.71,5,0,5,0.00
2013-7-27,90,80,72,68,64,59,84,62,40,29.71,29.62,9,0,9,0.00
2013-7-28,97,78,69,70,66,59,93,69,31,29.68,29.59,8,0,8,0.04
2013-7-29,95,76,67,68,61,52,94,65,27,29.85,29.68,6,0,6,0.08
2013-7-30,95,74,61,68,60,54,93,66,30,29.91,29.83,8,0,8,0.00
2013-7-31,87,71,64,70,65,61,95,81,46,29.83,29.71,6,0,6,0.67
2013-8-1,86,74,68,75,70,66,97,88,52,29.71,29.53,5,0,6,0.37
2013-8-2,100,83,68,77,60,54,97,50,27,29.71,29.65,7,0,7,0.54
2013-8-3,93,77,67,70,64,57,92,67,33,29.68,29.62,4,0,4,0.00
2013-8-4,94,76,65,68,59,46,91,60,24,29.74,29.59,8,1,8,0.00
2013-8-5,92,72,60,61,56,50,88,61,27,29.80,29.71,6,0,6,0.00
2013-8-6,84,72,67,66,64,59,90,74,48,29.77,29.68,6,0,6,0.08
2013-8-7,94,78,70,70,66,59,94,69,36,29.77,29.71,8,1,8,0.00
2013-8-8,94,79,72,72,68,61,92,69,38,29.77,29.68,6,0,6,0.00
2013-8-9,99,82,73,73,70,64,91,68,35,29.71,29.62,8,1,8,0.00
2013-8-10,101,81,73,73,68,57,88,67,32,29.80,29.68,6,0,6,0.00
2013-8-11,90,76,71,73,70,66,95,82,50,29.80,29.71,4,0,4,0.04
2013-8-12,101,81,71,75,68,57,96,69,29,29.74,29.62,6,0,6,0.00
2013-8-13,92,78,71,73,69,64,94,77,44,29.62,29.47,6,0,6,0.00
2013-8-14,80,70,59,70,53,43,90,57,31,29.80,29.50,8,1,8,0.00
2013-8-15,89,66,55,57,53,46,89,65,28,29.85,29.77,6,0,6,0.00
2013-8-16,83,66,56,64,55,50,94,71,33,29.88,29.80,5,0,5,0.00
2013-8-17,85,68,58,63,58,54,91,71,41,29.91,29.85,8,0,8,0.04
2013-8-18,69,66,64,66,64,63,95,92,83,29.91,29.83,4,0,4,0.42
2013-8-19,74,65,63,68,64,63,97,94,78,29.88,29.80,3,0,4,0.17
2013-8-20,92,83,65,66,64,63,96,55,41,29.85,29.80,3,0,3,0.00
2013-8-22,98,95,83,70,61,59,62,34,29,29.77,29.74,3,0,4,0.00
2013-8-26,76,69,66,57,55,54,69,63,45,29.80,29.77,0,0,1,0.16
2013-8-27,98,78,64,70,62,55,83,61,29,29.77,29.62,4,0,4,0.00
2013-8-28,79,74,71,72,69,66,95,83,67,29.68,29.53,5,0,5,0.13
2013-8-29,88,75,70,73,69,63,97,83,46,29.71,29.50,6,0,6,0.00
2013-8-30,96,76,65,72,63,55,97,69,28,29.77,29.62,6,0,6,0.00
2013-8-31,94,77,67,68,66,63,92,71,38,29.65,29.53,7,0,7,0.04
2013-9-1,98,78,68,75,68,63,96,74,34,29.59,29.47,11,0,11,0.66
2013-9-2,98,79,71,75,68,59,96,71,33,29.56,29.47,6,0,6,0.00
2013-9-3,73,73,71,70,68,68,90,86,84,29.50,29.47,1,0,1,0.00
2013-9-6,74,67,60,54,52,48,78,61,42,29.83,29.80,0,0,0,0.00
2013-9-7,85,68,55,61,56,52,91,67,35,29.83,29.65,1,0,1,0.00
2013-9-8,65,62,61,63,60,59,93,91,86,29.65,29.62,0,0,0,0.00
2013-9-13,70,65,61,52,48,46,61,55,46,29.62,29.50,3,0,3,0.00
2013-9-14,76,62,52,48,43,37,74,50,29,29.85,29.62,7,1,7,0.00
2013-9-15,82,63,47,55,47,43,89,60,30,29.94,29.80,9,0,9,0.00
2013-9-16,90,67,58,64,55,52,91,67,33,29.91,29.77,7,1,7,0.00
2013-9-17,75,62,52,55,49,43,93,65,39,30.06,29.88,9,1,9,0.00
2013-9-20,84,71,59,61,57,54,88,64,38,29.77,29.65,5,0,5,0.00
2013-9-21,73,66,61,66,62,59,96,86,69,29.68,29.41,8,1,8,0.75
2013-9-22,66,63,60,66,62,59,98,97,96,29.50,29.44,3,0,3,0.00
2013-10-2,69,65,62,57,55,52,80,70,53,29.77,29.74,0,0,0,0.00
2013-10-3,86,60,57,63,55,54,90,83,33,29.80,29.74,3,0,3,0.00
2013-10-4,84,74,66,61,57,54,80,59,33,29.77,29.71,2,0,3,0.00
2013-10-5,91,75,61,64,59,54,91,61,31,29.77,29.68,4,0,4,0.00
2013-10-6,72,66,64,66,61,59,90,82,76,29.74,29.71,3,0,3,0.00
2013-10-20,45,44,43,37,37,37,79,77,74,29.80,29.77,0,0,0,2.94
2013-10-21,69,51,36,50,37,34,93,64,33,29.83,29.65,4,1,4,0.00
2013-10-22,73,58,49,54,45,41,85,63,32,29.65,29.47,3,0,3,0.00
2013-10-23,63,53,41,48,39,30,86,59,44,29.62,29.38,7,1,7,0.04
2013-10-24,58,45,35,37,28,23,80,54,35,29.83,29.62,1,1,6,0.00
2013-10-25,46,36,32,36,26,23,77,67,58,29.94,29.83,1,1,6,0.00
2013-12-1,55,40,31,23,18,16,60,42,28,29.77,29.71,4,0,4,0.00
2013-12-2,62,43,26,34,25,16,78,51,31,29.71,29.53,6,1,6,0.00
2013-12-3,38,36,34,28,27,27,77,69,63,29.59,29.56,3,0,3,0.00
2013-12-5,64,63,62,63,62,61,95,94,93,29.71,29.68,6,2,6,0.25
2013-12-6,76,63,43,63,56,39,95,79,47,29.80,29.62,13,3,13,0.00
2013-12-7,47,40,34,43,31,23,96,71,47,30.15,29.74,15,3,15,0.37
2013-12-8,35,32,31,30,25,16,93,77,47,30.21,29.94,11,1,11,0.17
2013-12-9,41,36,0,41,36,27,98,96,92,29.94,29.74,4,0,4,0.12
2013-12-10,42,37,29,39,35,16,98,92,59,29.94,29.65,7,1,7,0.21
2013-12-11,30,28,26,16,16,14,70,61,57,30.00,29.94,4,2,4,0.00
2013-12-14,42,38,35,37,30,21,98,74,48,29.94,29.44,7,2,7,0.83
2013-12-15,56,41,32,45,30,16,98,66,36,29.71,29.35,10,2,10,0.00
2013-12-16,49,38,31,25,21,16,67,50,38,29.83,29.68,7,2,7,0.00
2013-12-17,56,42,29,39,29,23,87,60,36,29.80,29.59,11,1,11,0.42
2013-12-18,46,38,29,36,22,12,85,57,33,29.91,29.65,9,2,9,0.00
2013-12-19,55,36,29,23,16,12,54,45,28,29.91,29.88,8,2,8,0.00
2013-12-21,67,63,0,61,55,0,84,72,62,29.71,29.68,8,2,8,0.00
2013-12-22,75,68,61,64,60,57,94,77,59,29.74,29.62,12,3,12,0.91
2013-12-23,67,58,44,64,54,28,98,87,55,29.85,29.65,13,2,13,0.38
2013-12-24,46,37,26,28,18,3,75,46,34,30.12,29.85,13,3,13,0.00
2013-12-25,36,26,17,10,6,1,57,42,32,30.24,30.06,8,1,8,0.00
2013-12-26,29,21,17,16,10,7,75,67,53,30.06,29.97,4,1,4,0.00
2013-12-30,54,45,0,30,28,0,62,51,39,29.83,29.71,8,1,8,1.53
2013-12-31,51,40,30,34,21,10,86,48,29,30.00,29.80,11,2,11,0.00
2014-1-1,50,37,24,23,15,10,64,42,30,30.06,29.80,10,1,10,0.00
2014-1-2,51,37,27,34,26,14,93,66,42,29.80,29.26,8,1,8,0.37